Fort Benning, GA

11:09 AM EDT on October 01, 2014 (GMT -0400)
APRSWXNET Phenix City AL US | Change Station
CLOSE
Current Station
Personal Weather Station
Location: Phenix City, AL
Elevation: 282 ft
Nearby Weather Stations

Elev 282 ft 32.44 °N, 85.02 °W | Updated 41 minutes ago

Partly Cloudy
Partly Cloudy
66 °F
Feels Like 66 °F
N
0
Wind Variable Wind from NNE
Gusts 0.0 mph

Today
High -- | Low -- °F
--% Chance of Precip.
Yesterday
High -- | Low -- °F
Precip. -- in
7:33 AM 7:24 PM
Waxing Crescent, 48% visible
Pressure 29.94 in
Visibility 10.0 miles
Clouds Scattered Clouds 1100 ft
Overcast 3500 ft
Dew Point 64 °F
Humidity 92%
Rainfall 0.04 in
Snow Depth Not available.
UV 2 out of 12
Pollen 5.90 out of 12
Ozone Good
PM2.5 Good
Flu Activity Not available.
METAR KCSG 301451Z 09007KT 10SM SCT011 OVC035 22/19 A2995 RMK AO2 SLP138 60003 T02220194 58001

More Conditions Fewer Conditions

Pressure 29.94 in
Visibility 10.0 miles
Clouds Scattered Clouds 1100 ft
Overcast 3500 ft
Dew Point 64 °F
Humidity 92%
Rainfall 0.04 in
Snow Depth Not available.
UV 2 out of 12
Pollen 5.90 out of 12
Ozone Good
PM2.5 Good
Flu Activity Not available.
METAR KCSG 301451Z 09007KT 10SM SCT011 OVC035 22/19 A2995 RMK AO2 SLP138 60003 T02220194 58001

More Conditions Fewer Conditions

10-Day Weather Forecast

Almanac

Astronomy

Oct. 01, 2014 Rise Set
Actual Time 7:33 AM EDT 7:24 PM EDT
Civil Twilight 7:09 AM EDT 7:48 PM EDT
Nautical Twilight 6:40 AM EDT 8:17 PM EDT
Astronomical Twilight 6:12 AM EDT 8:45 PM EDT
Moon 2:19 PM EDT 12:09 AM EDT
Length of Visible Light 12h 39m
Length of Day
11h 50m
Tomorrow will be 1m 58s shorter.
Waxing Crescent, 48% of the Moon is Illuminated
Today
Waxing Crescent
Oct 1
First Quarter
Oct 8
Full
Oct 15
Last Quarter
Oct 23
New

Today's Extremes

State Highs State Lows

Community

WunderPhotos

Upload Photos

1,757,962 photos uploaded!

Nearby

Air Quality

  Air Quality AQ Index Pollutant
Yesterday Good
OZONE
Yesterday Good
PM2.5
Current Good
PM2.5
Current Good
OZONE
Wednesday Good
PM2.5

Snow Depth

Station Depth Elevation
No new snow has been reported.

Earthquake Activity

City Distance Mag. Time & Date
No recent earthquake activity has been reported nearby.
Minimum magnitude displayed is 2.5.

Coastal Water Temperatures

Place Temperature
No Stations Reporting

Nearby Weather Stations